SKU225 SCAT-SCEL
Flight info
| Callsign | SKU225 |
|---|---|
| Flight time | 0h 59m |
| Altitude | 37000 |
| Route | MORMI3J MORMI UQ803 SIMOK SIMOK6D |
| Aircraft | A320/M-SDE3FGHIRWY/LB1 |
Departure
| Time | 2026-05-06 21:56 |
|---|---|
| Airport | Desierto de Atacama Airport (SCAT) |
Arrival
| Time | 2026-05-06 22:55 |
|---|---|
| Airport | Comodoro Arturo Merino Benítez International Airport (SCEL) |
| Time | Latitude | Longitude | Altitude | Speed | Heading |
|---|---|---|---|---|---|
| 2026-05-06 21:37 | -27.26450 | -70.77504 | 665 ft | 0 kts | 39° |
| 2026-05-06 21:49 | -27.26449 | -70.77504 | 665 ft | 1 kts | 39° |
| 2026-05-06 21:49 | -27.26440 | -70.77503 | 663 ft | 2 kts | 356° |
| 2026-05-06 21:49 | -27.26432 | -70.77518 | 665 ft | 3 kts | 293° |
| 2026-05-06 21:49 | -27.26421 | -70.77547 | 665 ft | 5 kts | 293° |
| 2026-05-06 21:50 | -27.26401 | -70.77592 | 665 ft | 7 kts | 310° |
| 2026-05-06 21:50 | -27.26348 | -70.77614 | 665 ft | 9 kts | 354° |
| 2026-05-06 21:50 | -27.26276 | -70.77621 | 665 ft | 12 kts | 355° |
| 2026-05-06 21:50 | -27.26187 | -70.77629 | 665 ft | 14 kts | 355° |
| 2026-05-06 21:51 | -27.26089 | -70.77638 | 664 ft | 12 kts | 355° |
| 2026-05-06 21:51 | -27.26068 | -70.77657 | 665 ft | 4 kts | 301° |
| 2026-05-06 21:51 | -27.26063 | -70.77699 | 665 ft | 7 kts | 270° |
| 2026-05-06 21:51 | -27.26067 | -70.77759 | 665 ft | 9 kts | 265° |
| 2026-05-06 21:52 | -27.26073 | -70.77839 | 665 ft | 12 kts | 265° |
| 2026-05-06 21:52 | -27.26052 | -70.77926 | 665 ft | 13 kts | 327° |
| 2026-05-06 21:52 | -27.25955 | -70.77940 | 665 ft | 15 kts | 356° |
| 2026-05-06 21:52 | -27.25841 | -70.77952 | 666 ft | 17 kts | 0° |
| 2026-05-06 21:53 | -27.25719 | -70.77962 | 667 ft | 18 kts | 355° |
| 2026-05-06 21:53 | -27.25585 | -70.77973 | 667 ft | 21 kts | 356° |
| 2026-05-06 21:53 | -27.25435 | -70.77988 | 665 ft | 22 kts | 354° |
| 2026-05-06 21:53 | -27.25286 | -70.78004 | 667 ft | 15 kts | 2° |
| 2026-05-06 21:54 | -27.25227 | -70.77979 | 667 ft | 9 kts | 47° |
| 2026-05-06 21:54 | -27.25183 | -70.77952 | 665 ft | 7 kts | 348° |
| 2026-05-06 21:54 | -27.25167 | -70.77998 | 666 ft | 3 kts | 259° |
| 2026-05-06 21:54 | -27.25183 | -70.78013 | 666 ft | 3 kts | 193° |
| 2026-05-06 21:55 | -27.25203 | -70.78008 | 665 ft | 1 kts | 170° |
| 2026-05-06 21:55 | -27.25207 | -70.78007 | 667 ft | 7 kts | 170° |
| 2026-05-06 21:55 | -27.25502 | -70.77966 | 667 ft | 77 kts | 166° |
| 2026-05-06 21:55 | -27.26202 | -70.77919 | 665 ft | 126 kts | 174° |
| 2026-05-06 21:56 | -27.27171 | -70.77867 | 902 ft | 140 kts | 181° |
| 2026-05-06 21:56 | -27.28106 | -70.77803 | 1482 ft | 135 kts | 177° |
| 2026-05-06 21:56 | -27.29069 | -70.77705 | 1830 ft | 146 kts | 177° |
| 2026-05-06 21:56 | -27.30141 | -70.77599 | 2131 ft | 162 kts | 178° |
| 2026-05-06 21:57 | -27.31312 | -70.77490 | 2417 ft | 175 kts | 177° |
| 2026-05-06 21:57 | -27.32580 | -70.77327 | 2746 ft | 193 kts | 171° |
| 2026-05-06 21:57 | -27.33976 | -70.77023 | 3085 ft | 215 kts | 171° |
| 2026-05-06 21:57 | -27.35503 | -70.76677 | 3541 ft | 233 kts | 170° |
| 2026-05-06 21:58 | -27.37152 | -70.76304 | 4040 ft | 250 kts | 170° |
| 2026-05-06 21:58 | -27.38922 | -70.75907 | 4576 ft | 268 kts | 170° |
| 2026-05-06 21:58 | -27.40779 | -70.75492 | 5305 ft | 276 kts | 170° |
| 2026-05-06 21:58 | -27.42675 | -70.75068 | 6114 ft | 280 kts | 170° |
| 2026-05-06 21:59 | -27.44604 | -70.74639 | 6879 ft | 285 kts | 170° |
| 2026-05-06 21:59 | -27.46564 | -70.74207 | 7633 ft | 289 kts | 170° |
| 2026-05-06 21:59 | -27.48560 | -70.73768 | 8369 ft | 294 kts | 170° |
| 2026-05-06 21:59 | -27.50582 | -70.73319 | 9088 ft | 298 kts | 170° |
| 2026-05-06 22:00 | -27.52625 | -70.72866 | 9791 ft | 302 kts | 170° |
| 2026-05-06 22:00 | -27.54715 | -70.72405 | 10343 ft | 311 kts | 171° |
| 2026-05-06 22:00 | -27.56893 | -70.71927 | 10683 ft | 327 kts | 171° |
| 2026-05-06 22:00 | -27.59183 | -70.71423 | 10995 ft | 344 kts | 171° |
| 2026-05-06 22:01 | -27.61579 | -70.70894 | 11376 ft | 356 kts | 171° |
| 2026-05-06 22:01 | -27.64029 | -70.70349 | 11967 ft | 361 kts | 171° |
| 2026-05-06 22:01 | -27.66515 | -70.69794 | 12632 ft | 365 kts | 171° |
| 2026-05-06 22:01 | -27.69025 | -70.69239 | 13305 ft | 368 kts | 172° |
| 2026-05-06 22:02 | -27.71526 | -70.68741 | 13954 ft | 371 kts | 174° |
| 2026-05-06 22:02 | -27.74088 | -70.68276 | 14595 ft | 374 kts | 175° |
| 2026-05-06 22:02 | -27.76675 | -70.67826 | 15216 ft | 378 kts | 176° |
| 2026-05-06 22:02 | -27.79281 | -70.67373 | 15841 ft | 381 kts | 176° |
| 2026-05-06 22:03 | -27.81913 | -70.66914 | 16474 ft | 384 kts | 176° |
| 2026-05-06 22:03 | -27.84562 | -70.66444 | 17098 ft | 387 kts | 177° |
| 2026-05-06 22:03 | -27.87233 | -70.65962 | 17710 ft | 390 kts | 177° |
| 2026-05-06 22:03 | -27.89920 | -70.65472 | 18304 ft | 393 kts | 178° |
| 2026-05-06 22:04 | -27.92626 | -70.64974 | 18892 ft | 396 kts | 178° |
| 2026-05-06 22:04 | -27.95363 | -70.64472 | 19485 ft | 400 kts | 178° |
| 2026-05-06 22:04 | -27.98126 | -70.63965 | 20065 ft | 404 kts | 178° |
| 2026-05-06 22:04 | -28.00912 | -70.63455 | 20621 ft | 407 kts | 178° |
| 2026-05-06 22:05 | -28.03724 | -70.62942 | 21148 ft | 411 kts | 179° |
| 2026-05-06 22:05 | -28.06560 | -70.62424 | 21676 ft | 414 kts | 178° |
| 2026-05-06 22:05 | -28.09418 | -70.61891 | 22164 ft | 419 kts | 178° |
| 2026-05-06 22:05 | -28.12305 | -70.61321 | 22644 ft | 423 kts | 178° |
| 2026-05-06 22:06 | -28.15213 | -70.60725 | 23116 ft | 427 kts | 178° |
| 2026-05-06 22:06 | -28.18146 | -70.60115 | 23569 ft | 431 kts | 178° |
| 2026-05-06 22:06 | -28.21109 | -70.59500 | 23996 ft | 434 kts | 178° |
| 2026-05-06 22:06 | -28.24100 | -70.58884 | 24435 ft | 437 kts | 178° |
| 2026-05-06 22:07 | -28.27107 | -70.58271 | 24875 ft | 440 kts | 178° |
| 2026-05-06 22:07 | -28.30134 | -70.57657 | 25281 ft | 444 kts | 179° |
| 2026-05-06 22:07 | -28.33186 | -70.57040 | 25685 ft | 447 kts | 179° |
| 2026-05-06 22:07 | -28.36256 | -70.56418 | 26092 ft | 450 kts | 179° |
| 2026-05-06 22:08 | -28.39355 | -70.55790 | 26468 ft | 453 kts | 179° |
| 2026-05-06 22:08 | -28.42472 | -70.55159 | 26803 ft | 457 kts | 179° |
| 2026-05-06 22:08 | -28.45570 | -70.54530 | 27147 ft | 458 kts | 179° |
| 2026-05-06 22:08 | -28.48716 | -70.53937 | 27486 ft | 456 kts | 184° |
| 2026-05-06 22:09 | -28.51851 | -70.53791 | 27849 ft | 447 kts | 193° |
| 2026-05-06 22:09 | -28.54941 | -70.54058 | 28190 ft | 445 kts | 195° |
| 2026-05-06 22:09 | -28.58040 | -70.54359 | 28541 ft | 448 kts | 195° |
| 2026-05-06 22:09 | -28.61161 | -70.54659 | 28917 ft | 451 kts | 195° |
| 2026-05-06 22:10 | -28.64297 | -70.54953 | 29279 ft | 453 kts | 195° |
| 2026-05-06 22:10 | -28.67448 | -70.55247 | 29624 ft | 455 kts | 195° |
| 2026-05-06 22:10 | -28.70612 | -70.55543 | 29942 ft | 457 kts | 195° |
| 2026-05-06 22:10 | -28.73788 | -70.55840 | 30216 ft | 459 kts | 197° |
| 2026-05-06 22:11 | -28.76978 | -70.56142 | 30475 ft | 461 kts | 196° |
| 2026-05-06 22:11 | -28.80181 | -70.56446 | 30811 ft | 462 kts | 196° |
| 2026-05-06 22:11 | -28.83383 | -70.56746 | 31195 ft | 461 kts | 197° |
| 2026-05-06 22:11 | -28.86574 | -70.57043 | 31548 ft | 460 kts | 197° |
| 2026-05-06 22:12 | -28.89771 | -70.57339 | 31915 ft | 460 kts | 197° |
| 2026-05-06 22:12 | -28.92958 | -70.57637 | 32328 ft | 459 kts | 198° |
| 2026-05-06 22:12 | -28.96094 | -70.57933 | 32716 ft | 457 kts | 198° |
| 2026-05-06 22:12 | -28.99262 | -70.58237 | 33088 ft | 457 kts | 199° |
| 2026-05-06 22:13 | -29.02425 | -70.58539 | 33448 ft | 456 kts | 199° |
| 2026-05-06 22:13 | -29.05591 | -70.58844 | 33778 ft | 456 kts | 199° |
| 2026-05-06 22:13 | -29.08752 | -70.59151 | 34118 ft | 456 kts | 200° |
| 2026-05-06 22:13 | -29.11912 | -70.59459 | 34508 ft | 456 kts | 200° |
| 2026-05-06 22:14 | -29.15070 | -70.59763 | 34914 ft | 455 kts | 200° |
| 2026-05-06 22:14 | -29.18217 | -70.60069 | 35301 ft | 453 kts | 201° |
| 2026-05-06 22:14 | -29.21358 | -70.60375 | 35624 ft | 452 kts | 201° |
| 2026-05-06 22:14 | -29.24490 | -70.60681 | 35909 ft | 451 kts | 201° |
| 2026-05-06 22:15 | -29.27611 | -70.60988 | 36194 ft | 450 kts | 201° |
| 2026-05-06 22:15 | -29.30740 | -70.61297 | 36482 ft | 451 kts | 201° |
| 2026-05-06 22:15 | -29.33867 | -70.61610 | 36729 ft | 452 kts | 201° |
| 2026-05-06 22:15 | -29.36999 | -70.61921 | 37005 ft | 452 kts | 201° |
| 2026-05-06 22:16 | -29.43249 | -70.62520 | 37102 ft | 449 kts | 201° |
| 2026-05-06 22:16 | -29.49468 | -70.63110 | 37097 ft | 448 kts | 201° |
| 2026-05-06 22:17 | -29.55684 | -70.63719 | 37110 ft | 448 kts | 201° |
| 2026-05-06 22:17 | -29.61892 | -70.64333 | 37110 ft | 448 kts | 201° |
| 2026-05-06 22:18 | -29.68061 | -70.64943 | 37111 ft | 448 kts | 201° |
| 2026-05-06 22:18 | -29.74279 | -70.65547 | 37120 ft | 448 kts | 201° |
| 2026-05-06 22:19 | -29.80493 | -70.66148 | 37115 ft | 448 kts | 201° |
| 2026-05-06 22:19 | -29.86707 | -70.66761 | 37117 ft | 447 kts | 202° |
| 2026-05-06 22:20 | -29.92912 | -70.67376 | 37123 ft | 447 kts | 202° |
| 2026-05-06 22:20 | -29.99127 | -70.67993 | 37118 ft | 448 kts | 201° |
| 2026-05-06 22:21 | -30.05331 | -70.68596 | 37131 ft | 446 kts | 201° |
| 2026-05-06 22:21 | -30.11511 | -70.69206 | 37126 ft | 445 kts | 202° |
| 2026-05-06 22:22 | -30.17681 | -70.69820 | 37124 ft | 445 kts | 201° |
| 2026-05-06 22:22 | -30.23859 | -70.70433 | 37121 ft | 445 kts | 201° |
| 2026-05-06 22:23 | -30.29992 | -70.71035 | 37119 ft | 445 kts | 201° |
| 2026-05-06 22:23 | -30.36168 | -70.71646 | 37122 ft | 445 kts | 201° |
| 2026-05-06 22:24 | -30.42345 | -70.72258 | 37110 ft | 445 kts | 201° |
| 2026-05-06 22:24 | -30.48518 | -70.72880 | 37108 ft | 446 kts | 201° |
| 2026-05-06 22:25 | -30.54695 | -70.73500 | 37108 ft | 446 kts | 201° |
| 2026-05-06 22:25 | -30.60876 | -70.74113 | 37097 ft | 446 kts | 201° |
| 2026-05-06 22:26 | -30.67052 | -70.74703 | 37119 ft | 444 kts | 201° |
| 2026-05-06 22:26 | -30.73208 | -70.75288 | 37106 ft | 446 kts | 201° |
| 2026-05-06 22:27 | -30.79397 | -70.75895 | 37116 ft | 446 kts | 201° |
| 2026-05-06 22:27 | -30.85543 | -70.76499 | 37126 ft | 446 kts | 201° |
| 2026-05-06 22:28 | -30.91731 | -70.77102 | 37131 ft | 446 kts | 201° |
| 2026-05-06 22:28 | -30.97913 | -70.77701 | 37136 ft | 446 kts | 200° |
| 2026-05-06 22:29 | -31.04086 | -70.78301 | 37139 ft | 443 kts | 201° |
| 2026-05-06 22:29 | -31.10268 | -70.78906 | 37137 ft | 446 kts | 200° |
| 2026-05-06 22:30 | -31.16447 | -70.79510 | 37146 ft | 446 kts | 201° |
| 2026-05-06 22:30 | -31.21594 | -70.80019 | 37150 ft | 447 kts | 200° |
| 2026-05-06 22:31 | -31.27773 | -70.80623 | 37159 ft | 444 kts | 200° |
| 2026-05-06 22:31 | -31.33939 | -70.81228 | 37156 ft | 444 kts | 200° |
| 2026-05-06 22:32 | -31.40097 | -70.81836 | 37157 ft | 444 kts | 201° |
| 2026-05-06 22:32 | -31.46236 | -70.82438 | 37163 ft | 441 kts | 200° |
| 2026-05-06 22:33 | -31.49294 | -70.82739 | 36990 ft | 441 kts | 200° |
| 2026-05-06 22:33 | -31.52377 | -70.83049 | 36109 ft | 446 kts | 200° |
| 2026-05-06 22:33 | -31.55446 | -70.83363 | 35260 ft | 451 kts | 200° |
| 2026-05-06 22:33 | -31.58592 | -70.83686 | 34387 ft | 456 kts | 200° |
| 2026-05-06 22:34 | -31.61760 | -70.84007 | 33535 ft | 457 kts | 199° |
| 2026-05-06 22:34 | -31.64950 | -70.84329 | 32542 ft | 463 kts | 199° |
| 2026-05-06 22:34 | -31.68166 | -70.84644 | 31716 ft | 463 kts | 198° |
| 2026-05-06 22:34 | -31.71361 | -70.84949 | 31114 ft | 457 kts | 198° |
| 2026-05-06 22:35 | -31.74512 | -70.85236 | 30514 ft | 454 kts | 196° |
| 2026-05-06 22:35 | -31.77695 | -70.85215 | 30023 ft | 457 kts | 191° |
| 2026-05-06 22:35 | -31.80847 | -70.85088 | 29494 ft | 451 kts | 191° |
| 2026-05-06 22:35 | -31.83966 | -70.84968 | 28921 ft | 446 kts | 191° |
| 2026-05-06 22:36 | -31.87056 | -70.84857 | 28294 ft | 442 kts | 191° |
| 2026-05-06 22:36 | -31.90114 | -70.84754 | 27708 ft | 437 kts | 191° |
| 2026-05-06 22:36 | -31.93138 | -70.84651 | 27118 ft | 432 kts | 191° |
| 2026-05-06 22:36 | -31.96126 | -70.84547 | 26522 ft | 428 kts | 191° |
| 2026-05-06 22:37 | -31.99049 | -70.84432 | 26010 ft | 411 kts | 191° |
| 2026-05-06 22:37 | -32.01852 | -70.84309 | 25583 ft | 396 kts | 191° |
| 2026-05-06 22:37 | -32.04593 | -70.84206 | 25148 ft | 394 kts | 192° |
| 2026-05-06 22:37 | -32.07314 | -70.84119 | 24717 ft | 389 kts | 192° |
| 2026-05-06 22:38 | -32.10000 | -70.84039 | 24288 ft | 385 kts | 192° |
| 2026-05-06 22:38 | -32.12664 | -70.83956 | 23864 ft | 380 kts | 192° |
| 2026-05-06 22:38 | -32.15299 | -70.83870 | 23451 ft | 378 kts | 192° |
| 2026-05-06 22:38 | -32.17917 | -70.83779 | 23010 ft | 376 kts | 191° |
| 2026-05-06 22:39 | -32.20497 | -70.83688 | 22568 ft | 374 kts | 190° |
| 2026-05-06 22:39 | -32.23091 | -70.83592 | 22131 ft | 371 kts | 190° |
| 2026-05-06 22:39 | -32.25659 | -70.83495 | 21681 ft | 367 kts | 189° |
| 2026-05-06 22:39 | -32.28204 | -70.83393 | 21253 ft | 365 kts | 188° |
| 2026-05-06 22:40 | -32.30739 | -70.83303 | 20803 ft | 363 kts | 188° |
| 2026-05-06 22:40 | -32.33255 | -70.83216 | 20343 ft | 360 kts | 187° |
| 2026-05-06 22:40 | -32.35753 | -70.83133 | 19898 ft | 358 kts | 187° |
| 2026-05-06 22:40 | -32.38235 | -70.83046 | 19442 ft | 356 kts | 186° |
| 2026-05-06 22:41 | -32.43152 | -70.82870 | 18540 ft | 353 kts | 185° |
| 2026-05-06 22:41 | -32.45604 | -70.82783 | 18087 ft | 351 kts | 185° |
| 2026-05-06 22:41 | -32.48032 | -70.82690 | 17644 ft | 346 kts | 185° |
| 2026-05-06 22:42 | -32.50436 | -70.82604 | 17207 ft | 345 kts | 184° |
| 2026-05-06 22:42 | -32.52832 | -70.82523 | 16752 ft | 343 kts | 184° |
| 2026-05-06 22:42 | -32.55210 | -70.82439 | 16311 ft | 341 kts | 184° |
| 2026-05-06 22:42 | -32.57579 | -70.82357 | 15863 ft | 340 kts | 184° |
| 2026-05-06 22:43 | -32.59945 | -70.82272 | 15420 ft | 339 kts | 183° |
| 2026-05-06 22:43 | -32.62297 | -70.82185 | 14980 ft | 338 kts | 183° |
| 2026-05-06 22:43 | -32.64642 | -70.82098 | 14529 ft | 335 kts | 182° |
| 2026-05-06 22:43 | -32.66964 | -70.82009 | 14124 ft | 332 kts | 183° |
| 2026-05-06 22:44 | -32.69228 | -70.81922 | 13996 ft | 320 kts | 182° |
| 2026-05-06 22:44 | -32.71384 | -70.81838 | 13871 ft | 309 kts | 183° |
| 2026-05-06 22:44 | -32.73494 | -70.81757 | 13747 ft | 298 kts | 183° |
| 2026-05-06 22:44 | -32.75537 | -70.81682 | 13557 ft | 291 kts | 183° |
| 2026-05-06 22:45 | -32.77556 | -70.81615 | 13192 ft | 291 kts | 182° |
| 2026-05-06 22:45 | -32.79567 | -70.81552 | 12919 ft | 287 kts | 182° |
| 2026-05-06 22:45 | -32.81555 | -70.81486 | 12615 ft | 286 kts | 182° |
| 2026-05-06 22:45 | -32.83541 | -70.81418 | 12289 ft | 285 kts | 182° |
| 2026-05-06 22:46 | -32.85520 | -70.81346 | 11970 ft | 284 kts | 182° |
| 2026-05-06 22:46 | -32.87492 | -70.81273 | 11648 ft | 282 kts | 181° |
| 2026-05-06 22:46 | -32.89453 | -70.81200 | 11313 ft | 282 kts | 181° |
| 2026-05-06 22:46 | -32.91411 | -70.81127 | 10981 ft | 281 kts | 181° |
| 2026-05-06 22:47 | -32.93364 | -70.81046 | 10649 ft | 281 kts | 181° |
| 2026-05-06 22:47 | -32.95313 | -70.80946 | 10330 ft | 280 kts | 180° |
| 2026-05-06 22:47 | -32.97260 | -70.80839 | 10012 ft | 279 kts | 180° |
| 2026-05-06 22:47 | -32.99171 | -70.80732 | 9694 ft | 279 kts | 180° |
| 2026-05-06 22:48 | -33.01102 | -70.80625 | 9400 ft | 276 kts | 180° |
| 2026-05-06 22:48 | -33.03021 | -70.80520 | 9037 ft | 276 kts | 180° |
| 2026-05-06 22:48 | -33.04936 | -70.80417 | 8629 ft | 274 kts | 180° |
| 2026-05-06 22:48 | -33.06835 | -70.80316 | 8045 ft | 273 kts | 180° |
| 2026-05-06 22:49 | -33.08732 | -70.80218 | 7501 ft | 271 kts | 179° |
| 2026-05-06 22:49 | -33.10605 | -70.80119 | 6963 ft | 270 kts | 180° |
| 2026-05-06 22:49 | -33.12478 | -70.80019 | 6314 ft | 272 kts | 180° |
| 2026-05-06 22:49 | -33.14380 | -70.79916 | 5615 ft | 276 kts | 180° |
| 2026-05-06 22:50 | -33.16256 | -70.79817 | 5297 ft | 261 kts | 180° |
| 2026-05-06 22:50 | -33.17990 | -70.79726 | 5181 ft | 238 kts | 179° |
| 2026-05-06 22:50 | -33.19577 | -70.79639 | 5014 ft | 221 kts | 180° |
| 2026-05-06 22:50 | -33.21073 | -70.79557 | 4781 ft | 210 kts | 180° |
| 2026-05-06 22:51 | -33.22515 | -70.79481 | 4501 ft | 205 kts | 180° |
| 2026-05-06 22:51 | -33.23888 | -70.79406 | 4235 ft | 191 kts | 180° |
| 2026-05-06 22:51 | -33.25159 | -70.79336 | 4000 ft | 170 kts | 181° |
| 2026-05-06 22:51 | -33.26264 | -70.79275 | 3787 ft | 151 kts | 181° |
| 2026-05-06 22:52 | -33.27293 | -70.79222 | 3584 ft | 149 kts | 181° |
| 2026-05-06 22:52 | -33.28333 | -70.79167 | 3370 ft | 149 kts | 182° |
| 2026-05-06 22:52 | -33.29368 | -70.79113 | 3186 ft | 149 kts | 181° |
| 2026-05-06 22:52 | -33.30401 | -70.79058 | 2990 ft | 148 kts | 182° |
| 2026-05-06 22:53 | -33.31411 | -70.79002 | 2803 ft | 142 kts | 181° |
| 2026-05-06 22:53 | -33.32378 | -70.78936 | 2665 ft | 137 kts | 180° |
| 2026-05-06 22:53 | -33.33323 | -70.78903 | 2462 ft | 134 kts | 180° |
| 2026-05-06 22:53 | -33.34256 | -70.78857 | 2256 ft | 134 kts | 179° |
| 2026-05-06 22:54 | -33.35191 | -70.78805 | 2057 ft | 135 kts | 179° |
| 2026-05-06 22:54 | -33.36128 | -70.78760 | 1881 ft | 135 kts | 179° |
| 2026-05-06 22:54 | -33.37071 | -70.78705 | 1730 ft | 136 kts | 178° |
| 2026-05-06 22:54 | -33.38014 | -70.78649 | 1571 ft | 133 kts | 179° |
| 2026-05-06 22:55 | -33.38701 | -70.78615 | 1564 ft | 56 kts | 175° |
| 2026-05-06 22:55 | -33.38915 | -70.78602 | 1565 ft | 25 kts | 179° |
| 2026-05-06 22:55 | -33.39085 | -70.78636 | 1564 ft | 20 kts | 200° |
| 2026-05-06 22:55 | -33.39205 | -70.78706 | 1564 ft | 19 kts | 210° |
| 2026-05-06 22:56 | -33.39298 | -70.78766 | 1565 ft | 15 kts | 208° |
| 2026-05-06 22:56 | -33.39397 | -70.78828 | 1565 ft | 17 kts | 207° |
| 2026-05-06 22:56 | -33.39485 | -70.78907 | 1565 ft | 16 kts | 244° |
| 2026-05-06 22:56 | -33.39495 | -70.79044 | 1565 ft | 18 kts | 268° |
| 2026-05-06 22:57 | -33.39500 | -70.79186 | 1565 ft | 13 kts | 265° |
| 2026-05-06 22:57 | -33.39502 | -70.79212 | 1565 ft | 2 kts | 264° |
| 2026-05-06 22:57 | -33.39503 | -70.79223 | 1565 ft | 0 kts | 264° |
| 2026-05-06 22:58 | -33.39504 | -70.79225 | 1565 ft | 0 kts | 251° |
| 2026-05-06 22:58 | -33.39510 | -70.79228 | 1565 ft | 1 kts | 210° |
| 2026-05-06 22:58 | -33.39518 | -70.79225 | 1565 ft | 2 kts | 173° |
| 2026-05-06 22:58 | -33.39545 | -70.79221 | 1565 ft | 4 kts | 176° |
| 2026-05-06 22:59 | -33.39580 | -70.79219 | 1565 ft | 5 kts | 177° |
| 2026-05-06 22:59 | -33.39588 | -70.79219 | 1565 ft | 0 kts | 177° |
| 2026-05-06 22:59 | -33.39589 | -70.79219 | 1565 ft | 0 kts | 177° |
| 2026-05-06 23:01 | -33.39588 | -70.79219 | 1565 ft | 0 kts | 177° |
| 2026-05-06 23:02 | -33.39589 | -70.79219 | 1565 ft | 0 kts | 177° |